Chisholm Hibbing Airport Hibbing US
ICAO: KHIB
IATA: HIB
Category: Large
Scheduled Services: Yes

Elevation: 1354 ft
TransAlt. 18000 ft.

Airport Communications:
DULUTH APP/DEP:125.45
ASOS:126.425
DULUTH CLNC DEL:127.4
PRINCETON RDO:122.6
CTAF/UNICOM:123

KHIB Zoom In..

If Map Doesn't Load, Click Here

Runways:

(A) RW 04 length 3075 ft width 75 ft
---- / hdg 47

(B) RW 13 length 6758 ft width 150 ft
ILS 110.50 / hdg 130

(C) RW 22 length 3075 ft width 75 ft
---- / hdg 227

(D) RW 31 length 6758 ft width 150 ft
ILS 109.50 / hdg 310

Location; KHIB
Day. 21 / Time. 13.53 Zulu
* Altimeter: 29.84
* Temperature: 06° c. 42.8°f.
* Wind from: 330° Speed 18 kn with Gusts up to 27 kn.
Dewpoint: 04° c.
Visibility: 10 Statute Miles.
Clouds: Scattered 1600 ft.
Clouds: Broken 2100 ft.
Clouds: Overcast 4100 ft.
Conditions: Light Rain.

KHIB 211353Z AUTO 33018G27KT 10SM -RA SCT016 BKN021 OVC041 06/04 A2984 RMK AO2 PK WND 34038/1300 SLP113 P0001 T00610044


Wind From 330°
Speed 18 kn.

 
 
jpsmedia.com for Web Design worldairports.se 2018   terms of use